createdAt,value
2022-12-29T00:00:13.073Z,5.39
2022-12-29T00:03:04.508Z,5.39
2022-12-29T00:05:32.697Z,5.41
2022-12-29T00:08:02.130Z,5.42
2022-12-29T00:10:31.819Z,5.43
2022-12-29T00:13:19.964Z,5.44
2022-12-29T00:15:51.857Z,5.45
2022-12-29T00:18:22.604Z,5.46
2022-12-29T00:21:28.914Z,5.46
2022-12-29T00:24:15.738Z,5.47
2022-12-29T00:27:06.779Z,5.47
2022-12-29T00:29:54.515Z,5.48
2022-12-29T00:32:40.950Z,5.49
2022-12-29T00:35:14.579Z,5.52
2022-12-29T00:38:07.279Z,5.51
2022-12-29T00:40:56.513Z,5.50
2022-12-29T00:43:45.006Z,5.48
2022-12-29T00:46:19.719Z,5.47
2022-12-29T00:49:34.053Z,5.47
2022-12-29T00:52:10.814Z,5.46
2022-12-29T00:54:40.729Z,5.45
2022-12-29T00:57:10.535Z,5.45
2022-12-29T00:59:40.953Z,5.44
2022-12-29T01:02:11.037Z,5.44
2022-12-29T01:04:39.857Z,5.43
2022-12-29T01:07:09.416Z,5.42
2022-12-29T01:09:57.882Z,5.41
2022-12-29T01:12:40.970Z,5.38
2022-12-29T01:15:13.505Z,5.35
2022-12-29T01:17:43.328Z,5.33
2022-12-29T01:20:13.624Z,5.31
2022-12-29T01:22:43.139Z,5.28
2022-12-29T01:25:10.991Z,5.26
2022-12-29T01:27:39.886Z,5.24
2022-12-29T01:30:09.124Z,5.23
2022-12-29T01:32:37.914Z,5.21
2022-12-29T01:35:07.161Z,5.17
2022-12-29T01:37:36.332Z,5.14
2022-12-29T01:40:05.422Z,5.10
2022-12-29T01:42:34.247Z,5.08
2022-12-29T01:45:14.173Z,5.05
2022-12-29T01:47:53.293Z,5.03
2022-12-29T01:50:31.808Z,5.01
2022-12-29T01:53:08.585Z,4.99
2022-12-29T01:55:44.910Z,4.97
2022-12-29T01:58:16.697Z,4.95
2022-12-29T02:00:46.591Z,4.94
2022-12-29T02:03:17.561Z,4.92
2022-12-29T02:05:59.794Z,4.91
2022-12-29T02:08:31.877Z,4.90
2022-12-29T02:11:02.911Z,4.89
2022-12-29T02:13:33.684Z,4.88
2022-12-29T02:16:26.123Z,4.88
2022-12-29T02:19:44.382Z,4.89
2022-12-29T02:22:31.243Z,4.91
2022-12-29T02:25:42.371Z,4.92
2022-12-29T02:28:25.747Z,4.93
2022-12-29T02:31:00.168Z,4.96
2022-12-29T02:33:53.711Z,4.98
2022-12-29T02:36:32.808Z,4.98
2022-12-29T02:39:13.203Z,5.00
2022-12-29T02:42:04.542Z,5.01
2022-12-29T02:45:17.212Z,5.04
2022-12-29T02:47:55.970Z,5.06
2022-12-29T02:50:36.530Z,5.05
2022-12-29T02:53:15.593Z,5.05
2022-12-29T02:55:53.780Z,5.06
2022-12-29T02:58:24.371Z,5.08
2022-12-29T03:01:26.035Z,5.10
2022-12-29T03:04:04.754Z,5.12
2022-12-29T03:06:52.708Z,5.11
2022-12-29T03:09:32.874Z,5.10
2022-12-29T03:12:15.390Z,5.10
2022-12-29T03:15:29.742Z,5.10
2022-12-29T03:18:07.455Z,5.10
2022-12-29T03:20:44.539Z,5.07
2022-12-29T03:23:14.953Z,5.06
2022-12-29T03:25:52.093Z,5.05
2022-12-29T03:28:54.317Z,5.05
2022-12-29T03:31:26.968Z,5.07
2022-12-29T03:33:57.621Z,5.08
2022-12-29T03:36:34.807Z,5.09
2022-12-29T03:39:15.335Z,5.12
2022-12-29T03:41:46.731Z,5.14
2022-12-29T03:44:14.858Z,5.15
2022-12-29T03:46:42.676Z,5.13
2022-12-29T03:49:11.936Z,5.12
2022-12-29T03:51:40.855Z,5.11
2022-12-29T03:54:08.565Z,5.12
2022-12-29T03:56:36.351Z,5.13
2022-12-29T03:59:04.232Z,5.13
2022-12-29T04:01:39.856Z,5.12
2022-12-29T04:04:08.727Z,5.10
2022-12-29T04:06:38.445Z,5.09
2022-12-29T04:09:08.517Z,5.09
2022-12-29T04:11:45.048Z,5.09
2022-12-29T04:14:13.804Z,5.08
2022-12-29T04:16:42.454Z,5.08
2022-12-29T04:19:11.679Z,5.07
2022-12-29T04:21:39.992Z,5.06
2022-12-29T04:24:09.873Z,5.02
2022-12-29T04:26:43.335Z,4.96
2022-12-29T04:29:29.839Z,4.91
2022-12-29T04:32:27.394Z,4.86
2022-12-29T04:34:57.419Z,4.81
2022-12-29T04:37:26.104Z,4.78
2022-12-29T04:39:54.297Z,4.76
2022-12-29T04:42:22.260Z,4.76
2022-12-29T04:44:51.799Z,4.73
2022-12-29T04:47:54.822Z,4.73
2022-12-29T04:50:50.937Z,4.72
2022-12-29T04:53:20.537Z,4.68
2022-12-29T04:55:52.939Z,4.66
2022-12-29T04:58:23.594Z,4.65
2022-12-29T05:00:54.246Z,4.63
2022-12-29T05:03:26.489Z,4.62
2022-12-29T05:05:58.331Z,4.62
2022-12-29T05:08:28.292Z,4.61
2022-12-29T05:10:59.390Z,4.60
2022-12-29T05:13:28.195Z,4.60
2022-12-29T05:15:57.828Z,4.59
2022-12-29T05:18:25.703Z,4.58
2022-12-29T05:20:55.209Z,4.59
2022-12-29T05:23:25.273Z,4.59
2022-12-29T05:26:01.232Z,4.60
2022-12-29T05:28:58.397Z,4.60
2022-12-29T05:31:27.134Z,4.62
2022-12-29T05:33:55.831Z,4.64
2022-12-29T05:36:24.125Z,4.66
2022-12-29T05:38:57.580Z,4.67
2022-12-29T05:41:28.286Z,4.67
2022-12-29T05:44:28.813Z,4.68
2022-12-29T05:47:16.761Z,4.68
2022-12-29T05:54:23.261Z,4.70
2022-12-29T05:56:51.747Z,4.70
2022-12-29T05:59:19.775Z,4.70
2022-12-29T06:01:53.427Z,4.71
2022-12-29T06:04:22.378Z,4.71
2022-12-29T06:06:56.664Z,4.71
2022-12-29T06:09:33.750Z,4.72
2022-12-29T06:12:03.531Z,4.73
2022-12-29T06:14:33.190Z,4.75
2022-12-29T06:17:01.614Z,4.76
2022-12-29T06:19:31.608Z,4.79
2022-12-29T06:22:01.016Z,4.80
2022-12-29T06:24:30.778Z,4.82
2022-12-29T06:26:59.704Z,4.83
2022-12-29T06:29:28.522Z,4.85
2022-12-29T06:32:01.561Z,4.85
2022-12-29T06:34:34.278Z,4.85
2022-12-29T06:37:04.022Z,4.85
2022-12-29T06:39:33.544Z,4.86
2022-12-29T06:42:06.584Z,4.89
2022-12-29T06:45:08.183Z,4.91
2022-12-29T06:47:36.576Z,4.93
2022-12-29T06:50:30.879Z,4.95
2022-12-29T06:52:58.637Z,4.96
2022-12-29T06:55:28.620Z,4.97
2022-12-29T06:57:57.757Z,4.99
2022-12-29T07:00:26.350Z,5.01
2022-12-29T07:02:56.187Z,5.02
2022-12-29T07:05:28.293Z,5.04
2022-12-29T07:07:57.536Z,5.07
2022-12-29T07:10:25.846Z,5.10
2022-12-29T07:12:53.785Z,5.13
2022-12-29T07:15:21.879Z,5.16
2022-12-29T07:17:52.992Z,5.20
2022-12-29T07:20:26.538Z,5.23
2022-12-29T07:22:55.380Z,5.24
2022-12-29T07:25:23.613Z,5.25
2022-12-29T07:27:55.098Z,5.28
2022-12-29T07:30:23.874Z,5.30
2022-12-29T07:32:53.551Z,5.32
2022-12-29T07:35:21.883Z,5.35
2022-12-29T07:37:50.214Z,5.37
2022-12-29T07:40:18.031Z,5.40
2022-12-29T07:42:48.112Z,5.42
2022-12-29T07:45:19.243Z,5.44
2022-12-29T07:47:55.204Z,5.46
2022-12-29T07:50:24.370Z,5.46
2022-12-29T07:52:54.110Z,5.49
2022-12-29T07:55:21.867Z,5.51
2022-12-29T07:57:50.159Z,5.55
2022-12-29T08:00:20.308Z,5.59
2022-12-29T08:02:50.666Z,5.63
2022-12-29T08:05:18.487Z,5.66
2022-12-29T08:07:47.874Z,5.70
2022-12-29T08:10:17.269Z,5.73
2022-12-29T08:12:45.615Z,5.75
2022-12-29T08:15:15.706Z,5.78
2022-12-29T08:17:46.359Z,5.82
2022-12-29T08:20:14.075Z,5.85
2022-12-29T08:22:41.821Z,5.87
2022-12-29T08:25:11.217Z,5.90
2022-12-29T08:27:44.196Z,5.92
2022-12-29T08:30:12.739Z,5.95
2022-12-29T08:32:42.328Z,5.98
2022-12-29T08:35:11.838Z,6.01
2022-12-29T08:37:40.243Z,6.03
2022-12-29T08:40:11.904Z,6.05
2022-12-29T08:42:42.561Z,6.05
2022-12-29T08:45:10.869Z,6.07
2022-12-29T08:47:38.760Z,6.09
2022-12-29T08:50:57.121Z,6.12
2022-12-29T08:53:24.890Z,6.16
2022-12-29T08:56:04.095Z,6.18
2022-12-29T08:58:36.739Z,6.21
2022-12-29T09:01:05.718Z,6.23
2022-12-29T09:06:24.379Z,6.28
2022-12-29T09:08:57.889Z,6.31
2022-12-29T09:11:27.015Z,6.36
2022-12-29T09:13:56.995Z,6.43
2022-12-29T09:16:26.230Z,6.49
2022-12-29T09:18:57.655Z,6.54
2022-12-29T09:21:25.561Z,6.56
2022-12-29T09:23:56.214Z,6.61
2022-12-29T09:26:24.868Z,6.67
2022-12-29T09:28:53.658Z,6.73
2022-12-29T09:31:22.926Z,6.75
2022-12-29T09:33:50.954Z,6.75
2022-12-29T09:36:18.423Z,6.75
2022-12-29T09:38:45.981Z,6.75
2022-12-29T09:41:24.596Z,6.77
2022-12-29T09:44:06.510Z,6.79
2022-12-29T09:46:51.354Z,6.80
2022-12-29T09:49:55.341Z,6.83
2022-12-29T09:52:30.388Z,6.89
2022-12-29T09:55:14.172Z,6.97
2022-12-29T09:57:45.743Z,7.06
2022-12-29T10:00:39.011Z,7.19
2022-12-29T10:03:33.984Z,7.46
2022-12-29T10:06:18.914Z,7.61
2022-12-29T10:09:30.780Z,7.61
2022-12-29T10:12:20.070Z,7.57
2022-12-29T10:15:15.299Z,7.51
2022-12-29T10:17:51.284Z,7.52
2022-12-29T10:20:43.103Z,7.54
2022-12-29T10:23:38.293Z,7.52
2022-12-29T10:26:25.876Z,7.48
2022-12-29T10:29:04.600Z,7.45
2022-12-29T10:32:02.297Z,7.44
2022-12-29T10:37:48.464Z,7.42
2022-12-29T10:40:52.488Z,7.40
2022-12-29T10:43:29.263Z,7.42
2022-12-29T10:46:04.442Z,7.44
2022-12-29T10:49:02.791Z,7.44
2022-12-29T10:51:41.831Z,7.45
2022-12-29T10:54:42.002Z,7.45
2022-12-29T10:57:19.062Z,7.47
2022-12-29T10:59:49.055Z,7.47
2022-12-29T11:02:25.267Z,7.43
2022-12-29T11:05:12.550Z,7.42
2022-12-29T11:07:42.564Z,7.42
2022-12-29T11:10:41.678Z,7.44
2022-12-29T11:13:53.115Z,7.49
2022-12-29T11:16:57.178Z,7.51
2022-12-29T11:19:32.998Z,7.54
2022-12-29T11:22:26.082Z,7.55
2022-12-29T11:25:06.429Z,7.55
2022-12-29T11:27:34.812Z,7.54
2022-12-29T11:30:05.535Z,7.54
2022-12-29T11:32:35.612Z,7.52
2022-12-29T11:35:06.693Z,7.51
2022-12-29T11:37:42.921Z,7.51
2022-12-29T11:40:23.674Z,7.52
2022-12-29T11:42:54.005Z,7.54
2022-12-29T11:45:33.467Z,7.55
2022-12-29T11:48:11.180Z,7.57
2022-12-29T11:50:42.986Z,7.59
2022-12-29T11:53:24.561Z,7.58
2022-12-29T11:55:59.786Z,7.58
2022-12-29T11:58:35.757Z,7.59
2022-12-29T12:01:26.539Z,7.59
2022-12-29T12:04:05.985Z,7.58
2022-12-29T12:06:43.889Z,7.57
2022-12-29T12:09:26.772Z,7.55
2022-12-29T12:11:58.995Z,7.55
2022-12-29T12:14:46.806Z,7.56
2022-12-29T12:18:04.787Z,7.61
2022-12-29T12:20:45.424Z,7.66
2022-12-29T12:23:58.931Z,7.70
2022-12-29T12:26:58.410Z,7.73
2022-12-29T12:29:56.880Z,7.75
2022-12-29T12:32:45.665Z,7.78
2022-12-29T12:35:21.548Z,7.81
2022-12-29T12:38:20.575Z,7.82
2022-12-29T12:41:02.468Z,7.85
2022-12-29T12:44:01.807Z,7.88
2022-12-29T12:46:58.000Z,7.93
2022-12-29T12:50:12.763Z,8.31
2022-12-29T12:53:14.911Z,9.63
2022-12-29T12:56:03.621Z,10.44
2022-12-29T12:59:05.556Z,10.91
2022-12-29T13:01:52.688Z,11.08
2022-12-29T13:04:41.336Z,10.90
2022-12-29T13:07:17.587Z,10.31
2022-12-29T13:10:05.870Z,9.82
2022-12-29T13:12:43.722Z,9.43
2022-12-29T13:15:47.010Z,9.20
2022-12-29T13:18:30.496Z,9.18
2022-12-29T13:21:07.097Z,9.19
2022-12-29T13:23:53.125Z,9.06
2022-12-29T13:26:37.116Z,8.88
2022-12-29T13:29:37.087Z,8.71
2022-12-29T13:32:13.813Z,8.80
2022-12-29T13:34:47.674Z,9.18
2022-12-29T13:37:24.023Z,9.56
2022-12-29T13:39:57.095Z,9.58
2022-12-29T13:42:27.484Z,9.54
2022-12-29T13:45:07.792Z,9.50
2022-12-29T13:47:47.217Z,9.55
2022-12-29T13:50:25.960Z,9.48
2022-12-29T13:53:05.351Z,9.32
2022-12-29T13:56:09.129Z,9.12
2022-12-29T13:58:47.196Z,8.92
2022-12-29T14:01:45.656Z,8.82
2022-12-29T14:04:28.931Z,8.73
2022-12-29T14:07:18.516Z,8.66
2022-12-29T14:09:55.425Z,8.58
2022-12-29T14:12:39.832Z,8.51
2022-12-29T14:15:23.874Z,8.47
2022-12-29T14:18:12.332Z,8.40
2022-12-29T14:21:00.269Z,8.34
2022-12-29T14:23:37.910Z,8.26
2022-12-29T14:26:06.549Z,8.21
2022-12-29T14:28:41.155Z,8.17
2022-12-29T14:31:15.800Z,8.12
2022-12-29T14:34:11.703Z,8.08
2022-12-29T14:36:55.189Z,8.04
2022-12-29T14:39:41.872Z,8.03
2022-12-29T14:42:09.675Z,8.01
2022-12-29T14:44:57.338Z,8.00
2022-12-29T14:47:44.879Z,7.99
2022-12-29T14:50:41.891Z,7.95
2022-12-29T14:53:45.000Z,7.89
2022-12-29T14:56:16.663Z,7.81
2022-12-29T14:58:51.053Z,7.72
2022-12-29T15:01:53.131Z,7.66
2022-12-29T15:04:41.305Z,7.58
2022-12-29T15:07:11.404Z,7.54
2022-12-29T15:10:14.314Z,7.49
2022-12-29T15:12:53.406Z,7.44
2022-12-29T15:15:30.614Z,7.41
2022-12-29T15:18:13.837Z,7.36
2022-12-29T15:20:43.689Z,7.33
2022-12-29T15:23:17.323Z,7.31
2022-12-29T15:26:03.146Z,7.29
2022-12-29T15:28:43.471Z,7.25
2022-12-29T15:31:46.694Z,7.21
2022-12-29T15:34:15.382Z,7.18
2022-12-29T15:36:43.477Z,7.13
2022-12-29T15:39:28.698Z,7.09
2022-12-29T15:42:04.732Z,7.05
2022-12-29T15:44:43.933Z,7.01
2022-12-29T15:47:37.417Z,6.98
2022-12-29T15:50:37.795Z,6.93
2022-12-29T15:53:12.236Z,6.88
2022-12-29T15:55:44.033Z,6.84
2022-12-29T15:58:40.316Z,6.80
2022-12-29T16:01:37.268Z,6.77
2022-12-29T16:04:10.495Z,6.85
2022-12-29T16:07:27.804Z,6.87
2022-12-29T16:10:00.237Z,6.89
2022-12-29T16:12:35.163Z,6.89
2022-12-29T16:15:09.000Z,6.87
2022-12-29T16:17:54.940Z,6.82
2022-12-29T16:20:43.587Z,6.78
2022-12-29T16:23:38.376Z,6.76
2022-12-29T16:27:36.922Z,6.81
2022-12-29T16:34:32.516Z,6.93
2022-12-29T16:37:03.424Z,6.97
2022-12-29T16:39:36.907Z,7.01
2022-12-29T16:42:38.989Z,7.05
2022-12-29T16:45:24.891Z,7.08
2022-12-29T16:48:05.726Z,7.10
2022-12-29T16:50:38.620Z,7.10
2022-12-29T16:53:20.596Z,7.13
2022-12-29T16:55:54.523Z,7.15
2022-12-29T16:58:27.117Z,7.17
2022-12-29T17:01:01.297Z,7.19
2022-12-29T17:03:39.188Z,7.19
2022-12-29T17:06:15.698Z,7.18
2022-12-29T17:08:47.049Z,7.15
2022-12-29T17:11:53.885Z,7.11
2022-12-29T17:14:37.782Z,7.04
2022-12-29T17:17:15.747Z,7.00
2022-12-29T17:19:49.106Z,6.98
2022-12-29T17:22:21.113Z,6.97
2022-12-29T17:24:52.971Z,6.99
2022-12-29T17:27:32.043Z,7.03
2022-12-29T17:30:14.870Z,7.11
2022-12-29T17:32:44.756Z,7.17
2022-12-29T17:35:17.767Z,7.23
2022-12-29T17:37:47.758Z,7.30
2022-12-29T17:40:32.274Z,7.36
2022-12-29T17:43:01.424Z,7.44
2022-12-29T17:45:32.081Z,7.50
2022-12-29T17:48:02.201Z,7.55
2022-12-29T17:51:01.212Z,7.58
2022-12-29T17:53:32.802Z,7.62
2022-12-29T17:56:02.133Z,7.65
2022-12-29T17:58:33.078Z,7.69
2022-12-29T18:01:05.525Z,7.71
2022-12-29T18:03:37.075Z,7.73
2022-12-29T18:06:08.036Z,7.77
2022-12-29T18:08:38.593Z,7.79
2022-12-29T18:11:26.988Z,7.83
2022-12-29T18:17:52.503Z,7.89
2022-12-29T18:20:26.029Z,7.92
2022-12-29T18:23:02.725Z,7.95
2022-12-29T18:25:49.271Z,7.99
2022-12-29T18:28:29.236Z,8.02
2022-12-29T18:31:14.904Z,8.04
2022-12-29T18:33:45.233Z,8.05
2022-12-29T18:36:23.141Z,8.07
2022-12-29T18:39:02.045Z,8.13
2022-12-29T18:41:34.387Z,8.15
2022-12-29T18:44:05.483Z,8.16
2022-12-29T18:46:35.521Z,8.18
2022-12-29T18:49:18.871Z,8.19
2022-12-29T18:51:50.160Z,8.22
2022-12-29T18:54:45.911Z,8.23
2022-12-29T18:57:21.371Z,8.24
2022-12-29T18:59:52.222Z,8.26
2022-12-29T19:02:22.458Z,8.27
2022-12-29T19:04:53.154Z,8.27
2022-12-29T19:07:23.711Z,8.28
2022-12-29T19:09:52.571Z,8.27
2022-12-29T19:12:28.206Z,8.26
2022-12-29T19:14:57.208Z,8.24
2022-12-29T19:17:25.386Z,8.24
2022-12-29T19:19:54.455Z,8.22
2022-12-29T19:22:23.561Z,8.21
2022-12-29T19:24:54.945Z,8.18
2022-12-29T19:27:28.901Z,8.16
2022-12-29T19:29:57.772Z,8.13
2022-12-29T19:32:26.313Z,8.14
2022-12-29T19:34:56.359Z,8.14
2022-12-29T19:37:25.616Z,8.14
2022-12-29T19:39:53.324Z,8.12
2022-12-29T19:42:21.675Z,8.09
2022-12-29T19:44:49.366Z,8.08
2022-12-29T19:47:20.878Z,8.07
2022-12-29T19:49:53.261Z,8.06
2022-12-29T19:53:01.840Z,8.04
2022-12-29T19:55:47.816Z,8.00
2022-12-29T19:58:15.562Z,7.96
2022-12-29T20:00:45.072Z,7.93
2022-12-29T20:03:14.625Z,7.90
2022-12-29T20:05:48.659Z,7.87
2022-12-29T20:08:16.813Z,7.83
2022-12-29T20:10:45.563Z,7.79
2022-12-29T20:13:13.472Z,7.75
2022-12-29T20:15:44.286Z,7.71
2022-12-29T20:18:14.243Z,7.69
2022-12-29T20:20:43.880Z,7.66
2022-12-29T20:23:12.307Z,7.61
2022-12-29T20:25:45.227Z,7.53
2022-12-29T20:28:16.167Z,7.46
2022-12-29T20:30:45.078Z,7.40
2022-12-29T20:33:12.908Z,7.35
2022-12-29T20:35:44.629Z,7.29
2022-12-29T20:38:15.481Z,7.24
2022-12-29T20:40:46.963Z,7.23
2022-12-29T20:43:16.129Z,7.23
2022-12-29T20:45:46.850Z,7.24
2022-12-29T20:48:15.061Z,7.24
2022-12-29T20:50:46.877Z,7.24
2022-12-29T20:53:14.791Z,7.22
2022-12-29T20:55:43.167Z,7.21
2022-12-29T20:58:23.475Z,7.20
2022-12-29T21:00:55.571Z,7.18
2022-12-29T21:03:25.605Z,7.16
2022-12-29T21:05:56.401Z,7.13
2022-12-29T21:08:29.790Z,7.10
2022-12-29T21:11:00.752Z,7.11
2022-12-29T21:13:30.083Z,7.11
2022-12-29T21:16:02.424Z,7.14
2022-12-29T21:18:31.617Z,7.16
2022-12-29T21:21:03.843Z,7.19
2022-12-29T21:23:32.223Z,7.20
2022-12-29T21:26:00.625Z,7.20
2022-12-29T21:28:28.637Z,7.20
2022-12-29T21:30:56.334Z,7.18
2022-12-29T21:33:23.973Z,7.17
2022-12-29T21:35:52.643Z,7.17
2022-12-29T21:38:22.881Z,7.15
2022-12-29T21:40:54.041Z,7.17
2022-12-29T21:43:24.916Z,7.18
2022-12-29T21:45:54.484Z,7.19
2022-12-29T21:48:26.141Z,7.21
2022-12-29T21:51:30.121Z,7.21
2022-12-29T21:54:19.976Z,7.20
2022-12-29T21:56:49.951Z,7.21
2022-12-29T21:59:37.983Z,7.22
2022-12-29T22:02:55.822Z,7.24
2022-12-29T22:05:43.093Z,7.26
2022-12-29T22:08:30.411Z,7.25
2022-12-29T22:11:17.468Z,7.24
2022-12-29T22:13:45.853Z,7.23
2022-12-29T22:16:15.361Z,7.22
2022-12-29T22:18:44.521Z,7.20
2022-12-29T22:21:13.432Z,7.20
2022-12-29T22:23:42.851Z,7.19
2022-12-29T22:26:14.398Z,7.17
2022-12-29T22:28:45.742Z,7.17
2022-12-29T22:31:29.783Z,7.15
2022-12-29T22:34:01.422Z,7.11
2022-12-29T22:36:30.268Z,7.08
2022-12-29T22:38:59.068Z,7.07
2022-12-29T22:41:28.376Z,7.07
2022-12-29T22:43:57.457Z,7.06
2022-12-29T22:46:25.906Z,7.06
2022-12-29T22:48:56.864Z,7.03
2022-12-29T22:51:26.388Z,7.01
2022-12-29T22:53:56.608Z,6.98
2022-12-29T22:56:24.589Z,6.95
2022-12-29T22:58:56.208Z,6.94
2022-12-29T23:01:26.531Z,6.94
2022-12-29T23:04:10.988Z,6.92
2022-12-29T23:06:43.230Z,6.88
2022-12-29T23:09:17.899Z,6.86
2022-12-29T23:11:47.214Z,6.83
2022-12-29T23:14:17.131Z,6.80
2022-12-29T23:16:50.032Z,6.77
2022-12-29T23:19:17.839Z,6.76
2022-12-29T23:21:45.515Z,6.74
2022-12-29T23:24:14.761Z,6.71
2022-12-29T23:26:46.346Z,6.69
2022-12-29T23:29:20.130Z,6.68
2022-12-29T23:31:48.366Z,6.67
2022-12-29T23:34:17.246Z,6.67
2022-12-29T23:36:46.054Z,6.67
2022-12-29T23:39:20.052Z,6.67
2022-12-29T23:41:52.944Z,6.66
2022-12-29T23:44:22.867Z,6.65
2022-12-29T23:46:51.152Z,6.62
2022-12-29T23:49:20.504Z,6.60
2022-12-29T23:51:48.945Z,6.60
2022-12-29T23:54:19.020Z,6.64
2022-12-29T23:56:47.088Z,6.67
2022-12-29T23:59:14.643Z,6.69
